createdAt,value
2019-04-16T00:01:23.796Z,19.57
2019-04-16T00:03:57.880Z,19.33
2019-04-16T00:06:49.071Z,22.50
2019-04-16T00:09:31.069Z,17.70
2019-04-16T00:12:18.193Z,19.40
2019-04-16T00:14:48.209Z,20.37
2019-04-16T00:17:17.317Z,21.00
2019-04-16T00:19:46.375Z,20.97
2019-04-16T00:22:24.443Z,20.60
2019-04-16T00:24:55.419Z,20.63
2019-04-16T00:27:28.239Z,20.93
2019-04-16T00:29:55.899Z,20.63
2019-04-16T00:32:29.945Z,20.63
2019-04-16T00:34:58.975Z,20.00
2019-04-16T00:37:28.039Z,19.80
2019-04-16T00:39:57.338Z,22.03
2019-04-16T00:42:26.401Z,19.90
2019-04-16T00:44:55.605Z,20.63
2019-04-16T00:47:24.738Z,20.27
2019-04-16T00:49:57.568Z,19.80
2019-04-16T00:52:24.521Z,19.80
2019-04-16T00:54:54.142Z,19.10
2019-04-16T00:57:23.573Z,19.90
2019-04-16T00:59:56.342Z,19.90
2019-04-16T01:02:23.473Z,20.10
2019-04-16T01:04:52.513Z,18.93
2019-04-16T01:07:21.568Z,20.03
2019-04-16T01:09:50.989Z,18.63
2019-04-16T01:12:20.009Z,20.33
2019-04-16T01:14:49.059Z,21.60
2019-04-16T01:17:18.347Z,20.00
2019-04-16T01:19:47.718Z,19.80
2019-04-16T01:22:17.045Z,20.20
2019-04-16T01:24:46.413Z,21.80
2019-04-16T01:27:15.951Z,20.27
2019-04-16T01:29:45.014Z,20.13
2019-04-16T01:32:42.469Z,20.47
2019-04-16T01:35:29.515Z,19.87
2019-04-16T01:38:20.954Z,19.63
2019-04-16T01:41:00.303Z,21.40
2019-04-16T01:43:29.639Z,22.17
2019-04-16T01:46:01.448Z,20.70
2019-04-16T01:48:30.749Z,21.90
2019-04-16T01:51:00.363Z,21.20
2019-04-16T01:53:30.076Z,20.83
2019-04-16T01:55:59.441Z,20.77
2019-04-16T01:58:28.478Z,20.77
2019-04-16T02:00:57.683Z,20.97
2019-04-16T02:03:26.727Z,21.60
2019-04-16T02:05:55.717Z,20.27
2019-04-16T02:08:24.757Z,21.23
2019-04-16T02:10:54.175Z,21.67
2019-04-16T02:13:23.213Z,22.10
2019-04-16T02:15:53.329Z,22.83
2019-04-16T02:18:23.293Z,22.03
2019-04-16T02:20:52.319Z,21.73
2019-04-16T02:23:21.696Z,20.90
2019-04-16T02:25:51.342Z,20.40
2019-04-16T02:28:21.690Z,20.57
2019-04-16T02:30:51.172Z,20.43
2019-04-16T02:33:20.271Z,20.50
2019-04-16T02:35:49.655Z,21.00
2019-04-16T02:38:18.698Z,20.87
2019-04-16T02:40:52.785Z,19.90
2019-04-16T02:43:19.174Z,21.40
2019-04-16T02:45:48.214Z,20.13
2019-04-16T02:48:17.465Z,21.37
2019-04-16T02:50:48.467Z,20.40
2019-04-16T02:53:40.996Z,21.03
2019-04-16T02:56:34.872Z,21.20
2019-04-16T02:59:11.823Z,20.43
2019-04-16T03:01:49.458Z,21.13
2019-04-16T03:04:21.615Z,20.10
2019-04-16T03:06:50.991Z,19.37
2019-04-16T03:09:19.980Z,19.80
2019-04-16T03:11:49.329Z,19.57
2019-04-16T03:14:18.395Z,20.07
2019-04-16T03:17:15.853Z,19.77
2019-04-16T03:19:50.918Z,19.57
2019-04-16T03:22:16.513Z,19.73
2019-04-16T03:24:45.552Z,18.67
2019-04-16T03:27:14.591Z,19.13
2019-04-16T03:29:43.586Z,19.00
2019-04-16T03:32:15.001Z,19.47
2019-04-16T03:34:43.732Z,19.00
2019-04-16T03:37:12.726Z,19.30
2019-04-16T03:39:44.687Z,18.93
2019-04-16T03:42:12.899Z,19.87
2019-04-16T03:44:41.925Z,19.57
2019-04-16T03:47:11.653Z,19.67
2019-04-16T03:49:40.659Z,19.90
2019-04-16T03:52:10.354Z,19.17
2019-04-16T03:54:39.385Z,20.00
2019-04-16T03:57:08.411Z,18.70
2019-04-16T03:59:39.994Z,19.90
2019-04-16T04:02:08.623Z,21.13
2019-04-16T04:04:37.639Z,20.07
2019-04-16T04:07:09.005Z,19.40
2019-04-16T04:09:37.413Z,18.70
2019-04-16T04:12:09.832Z,19.10
2019-04-16T04:14:38.144Z,20.93
2019-04-16T04:17:07.465Z,20.80
2019-04-16T04:19:36.626Z,20.00
2019-04-16T04:22:05.987Z,19.57
2019-04-16T04:24:35.087Z,19.63
2019-04-16T04:27:04.150Z,19.50
2019-04-16T04:29:33.224Z,19.10
2019-04-16T04:32:03.464Z,20.90
2019-04-16T04:34:33.733Z,21.00
2019-04-16T04:37:02.762Z,20.10
2019-04-16T04:39:32.511Z,19.97
2019-04-16T04:42:01.568Z,18.37
2019-04-16T04:44:30.579Z,20.50
2019-04-16T04:46:59.915Z,18.73
2019-04-16T04:49:30.517Z,19.00
2019-04-16T04:52:00.883Z,20.70
2019-04-16T04:54:29.900Z,20.30
2019-04-16T04:56:59.919Z,19.33
2019-04-16T04:59:29.216Z,19.80
2019-04-16T05:01:58.251Z,19.00
2019-04-16T05:04:44.882Z,19.00
2019-04-16T05:07:14.463Z,18.33
2019-04-16T05:09:43.397Z,18.67
2019-04-16T05:12:12.456Z,19.70
2019-04-16T05:14:57.559Z,20.10
2019-04-16T05:17:28.083Z,18.70
2019-04-16T05:19:57.101Z,19.07
2019-04-16T05:22:26.457Z,19.30
2019-04-16T05:25:00.864Z,18.47
2019-04-16T05:27:29.150Z,18.23
2019-04-16T05:29:57.016Z,19.07
2019-04-16T05:32:29.343Z,20.00
2019-04-16T05:34:56.779Z,18.93
2019-04-16T05:37:25.862Z,20.27
2019-04-16T05:39:58.579Z,19.33
2019-04-16T05:42:26.377Z,19.20
2019-04-16T05:44:55.474Z,18.43
2019-04-16T05:47:24.528Z,18.90
2019-04-16T05:49:54.398Z,18.17
2019-04-16T05:52:24.339Z,18.63
2019-04-16T05:55:22.006Z,18.87
2019-04-16T05:57:51.091Z,17.50
2019-04-16T06:00:30.306Z,17.37
2019-04-16T06:02:59.646Z,19.27
2019-04-16T06:05:30.360Z,18.50
2019-04-16T06:08:10.245Z,17.80
2019-04-16T06:10:39.511Z,17.37
2019-04-16T06:13:24.584Z,18.30
2019-04-16T06:16:00.891Z,17.80
2019-04-16T06:18:37.962Z,18.67
2019-04-16T06:21:29.262Z,17.80
2019-04-16T06:24:26.302Z,17.83
2019-04-16T06:27:02.139Z,17.90
2019-04-16T06:29:49.220Z,17.53
2019-04-16T06:32:37.516Z,18.53
2019-04-16T06:35:42.523Z,18.27
2019-04-16T06:38:15.487Z,17.90
2019-04-16T06:41:03.137Z,18.03
2019-04-16T06:43:31.130Z,18.47
2019-04-16T06:46:18.166Z,18.23
2019-04-16T06:49:06.496Z,17.60
2019-04-16T06:51:45.151Z,18.73
2019-04-16T06:54:45.721Z,17.33
2019-04-16T06:57:32.458Z,16.33
2019-04-16T07:00:19.781Z,17.50
2019-04-16T07:03:14.765Z,16.87
2019-04-16T07:06:03.941Z,17.50
2019-04-16T07:08:49.875Z,17.23
2019-04-16T07:11:16.688Z,17.60
2019-04-16T07:13:46.114Z,16.40
2019-04-16T07:16:15.144Z,16.50
2019-04-16T07:18:44.265Z,16.70
2019-04-16T07:21:14.560Z,18.07
2019-04-16T07:23:46.409Z,17.10
2019-04-16T07:26:16.273Z,17.03
2019-04-16T07:29:04.519Z,16.43
2019-04-16T07:31:44.212Z,17.17
2019-04-16T07:34:18.071Z,16.90
2019-04-16T07:36:56.627Z,16.67
2019-04-16T07:39:37.825Z,16.80
2019-04-16T07:42:26.476Z,16.37
2019-04-16T07:45:14.802Z,15.93
2019-04-16T07:48:08.955Z,15.80
2019-04-16T07:51:12.248Z,16.23
2019-04-16T07:54:04.390Z,15.33
2019-04-16T07:56:34.010Z,15.13
2019-04-16T07:59:03.076Z,15.33
2019-04-16T08:01:32.527Z,15.23
2019-04-16T08:04:03.102Z,15.50
2019-04-16T08:06:33.460Z,15.43
2019-04-16T08:09:02.544Z,15.47
2019-04-16T08:11:31.668Z,15.83
2019-04-16T08:14:01.076Z,15.43
2019-04-16T08:16:30.142Z,15.90
2019-04-16T08:18:59.174Z,16.37
2019-04-16T08:21:28.263Z,15.53
2019-04-16T08:24:06.657Z,15.03
2019-04-16T08:26:35.955Z,15.03
2019-04-16T08:29:05.076Z,15.80
2019-04-16T08:31:37.272Z,15.10
2019-04-16T08:34:06.246Z,15.83
2019-04-16T08:36:35.286Z,15.97
2019-04-16T08:39:07.557Z,16.17
2019-04-16T08:41:36.676Z,15.27
2019-04-16T08:44:05.822Z,15.90
2019-04-16T08:46:34.977Z,16.20
2019-04-16T08:49:04.414Z,16.57
2019-04-16T08:51:37.038Z,15.43
2019-04-16T08:54:04.280Z,14.73
2019-04-16T08:56:33.610Z,16.42
2019-04-16T08:59:02.640Z,16.35
2019-04-16T09:01:33.514Z,15.83
2019-04-16T09:04:03.139Z,16.10
2019-04-16T09:06:32.662Z,15.55
2019-04-16T09:09:13.417Z,15.50
2019-04-16T09:11:42.980Z,15.83
2019-04-16T09:14:12.340Z,16.05
2019-04-16T09:16:53.364Z,15.05
2019-04-16T09:19:22.560Z,15.43
2019-04-16T09:21:52.018Z,15.93
2019-04-16T09:24:28.259Z,16.02
2019-04-16T09:27:13.103Z,16.75
2019-04-16T09:30:16.933Z,16.55
2019-04-16T09:32:51.275Z,16.33
2019-04-16T09:35:23.154Z,16.60
2019-04-16T09:38:09.370Z,16.67
2019-04-16T09:40:58.633Z,16.77
2019-04-16T09:43:28.430Z,17.10
2019-04-16T09:46:09.654Z,17.10
2019-04-16T09:48:28.322Z,18.30
2019-04-16T09:50:57.358Z,17.37
2019-04-16T09:53:33.494Z,18.17
2019-04-16T09:55:59.484Z,17.60
2019-04-16T09:58:28.904Z,16.70
2019-04-16T10:01:06.499Z,16.77
2019-04-16T10:03:37.086Z,16.95
2019-04-16T10:06:06.832Z,16.30
2019-04-16T10:08:35.839Z,17.67
2019-04-16T10:11:06.168Z,17.37
2019-04-16T10:13:36.234Z,15.75
2019-04-16T10:16:06.242Z,17.87
2019-04-16T10:18:36.012Z,17.60
2019-04-16T10:21:05.216Z,16.85
2019-04-16T10:23:53.584Z,17.85
2019-04-16T10:26:22.683Z,17.45
2019-04-16T10:28:51.729Z,17.37
2019-04-16T10:31:21.520Z,18.98
2019-04-16T10:33:51.061Z,17.40
2019-04-16T10:36:20.122Z,17.32
2019-04-16T10:39:14.027Z,17.95
2019-04-16T10:41:50.793Z,18.67
2019-04-16T10:44:34.442Z,18.05
2019-04-16T10:47:22.279Z,17.77
2019-04-16T10:50:12.977Z,18.15
2019-04-16T10:53:03.115Z,19.35
2019-04-16T10:55:54.367Z,18.25
2019-04-16T10:58:40.889Z,18.32
2019-04-16T11:01:30.499Z,17.95
2019-04-16T11:04:11.574Z,19.20
2019-04-16T11:06:42.825Z,18.37
2019-04-16T11:09:12.149Z,19.27
2019-04-16T11:11:41.163Z,18.02
2019-04-16T11:14:10.334Z,19.23
2019-04-16T11:16:41.433Z,17.82
2019-04-16T11:19:10.774Z,19.80
2019-04-16T11:21:40.265Z,19.27
2019-04-16T11:24:09.671Z,17.75
2019-04-16T11:26:38.723Z,17.85
2019-04-16T11:29:08.107Z,17.92
2019-04-16T11:31:37.623Z,18.73
2019-04-16T11:34:07.792Z,17.98
2019-04-16T11:36:37.379Z,18.55
2019-04-16T11:39:08.016Z,19.10
2019-04-16T11:41:37.221Z,18.65
2019-04-16T11:44:15.168Z,17.07
2019-04-16T11:46:37.561Z,17.02
2019-04-16T11:49:06.885Z,17.50
2019-04-16T11:51:36.206Z,17.40
2019-04-16T11:54:05.252Z,17.98
2019-04-16T11:56:34.291Z,17.95
2019-04-16T11:59:03.351Z,17.32
2019-04-16T12:01:50.022Z,18.00
2019-04-16T12:04:36.767Z,17.32
2019-04-16T12:07:25.055Z,16.90
2019-04-16T12:10:31.254Z,17.95
2019-04-16T12:13:24.512Z,17.85
2019-04-16T12:16:11.200Z,17.82
2019-04-16T12:19:06.204Z,16.25
2019-04-16T12:22:06.351Z,17.30
2019-04-16T12:24:51.465Z,17.32
2019-04-16T12:27:48.258Z,18.67
2019-04-16T12:30:35.599Z,19.67
2019-04-16T12:33:26.387Z,19.00
2019-04-16T12:36:02.610Z,19.35
2019-04-16T12:38:46.032Z,17.75
2019-04-16T12:41:23.955Z,19.07
2019-04-16T12:44:04.836Z,18.40
2019-04-16T12:46:58.664Z,18.62
2019-04-16T12:49:46.438Z,18.00
2019-04-16T12:52:23.524Z,17.90
2019-04-16T12:55:14.511Z,17.73
2019-04-16T12:58:11.330Z,18.98
2019-04-16T13:00:59.827Z,18.00
2019-04-16T13:03:34.931Z,19.05
2019-04-16T13:06:26.901Z,17.35
2019-04-16T13:09:12.363Z,16.10
2019-04-16T13:12:09.438Z,15.85
2019-04-16T13:15:00.997Z,16.55
2019-04-16T13:17:50.815Z,16.35
2019-04-16T13:20:51.942Z,16.17
2019-04-16T13:23:39.175Z,16.10
2019-04-16T13:26:13.651Z,16.83
2019-04-16T13:28:42.958Z,15.50
2019-04-16T13:31:14.844Z,16.60
2019-04-16T13:33:46.197Z,16.50
2019-04-16T13:36:15.060Z,17.90
2019-04-16T13:38:48.702Z,17.70
2019-04-16T13:41:17.765Z,19.55
2019-04-16T13:43:50.766Z,18.35
2019-04-16T13:46:19.886Z,19.30
2019-04-16T13:48:53.860Z,19.23
2019-04-16T13:51:24.595Z,20.17
2019-04-16T13:54:15.984Z,19.95
2019-04-16T13:56:51.560Z,19.12
2019-04-16T13:59:38.002Z,21.00
2019-04-16T14:02:18.692Z,19.07
2019-04-16T14:04:45.830Z,20.87
2019-04-16T14:07:14.866Z,20.60
2019-04-16T14:09:44.382Z,20.97
2019-04-16T14:12:13.816Z,19.97
2019-04-16T14:14:43.083Z,19.67
2019-04-16T14:17:17.635Z,19.60
2019-04-16T14:19:45.100Z,20.20
2019-04-16T14:22:14.160Z,19.73
2019-04-16T14:24:43.506Z,17.97
2019-04-16T14:27:14.452Z,19.10
2019-04-16T14:29:43.624Z,17.98
2019-04-16T14:32:13.856Z,16.90
2019-04-16T14:35:07.906Z,17.23
2019-04-16T14:37:36.984Z,16.13
2019-04-16T14:40:25.789Z,15.80
2019-04-16T14:42:57.593Z,15.95
2019-04-16T14:45:56.804Z,15.10
2019-04-16T14:48:10.988Z,16.27
2019-04-16T14:50:40.005Z,16.67
2019-04-16T14:53:09.337Z,16.93
2019-04-16T14:56:00.482Z,16.20
2019-04-16T14:58:47.933Z,16.75
2019-04-16T15:01:35.938Z,17.80
2019-04-16T15:04:35.862Z,17.10
2019-04-16T15:07:23.974Z,18.50
2019-04-16T15:10:14.756Z,17.10
2019-04-16T15:12:54.295Z,18.23
2019-04-16T15:15:33.119Z,18.23
2019-04-16T15:18:21.092Z,20.17
2019-04-16T15:21:10.580Z,17.73
2019-04-16T15:24:01.239Z,18.12
2019-04-16T15:26:52.098Z,19.17
2019-04-16T15:29:24.173Z,18.40
2019-04-16T15:32:12.379Z,19.30
2019-04-16T15:34:44.217Z,21.40
2019-04-16T15:37:26.748Z,19.57
2019-04-16T15:39:59.599Z,20.00
2019-04-16T15:42:51.823Z,19.77
2019-04-16T15:45:29.959Z,20.47
2019-04-16T15:48:17.963Z,21.03
2019-04-16T15:51:07.683Z,21.13
2019-04-16T15:53:51.819Z,19.97
2019-04-16T15:56:45.944Z,21.47
2019-04-16T15:59:32.902Z,19.70
2019-04-16T16:02:24.125Z,21.07
2019-04-16T16:04:58.871Z,22.67
2019-04-16T16:07:30.800Z,21.63
2019-04-16T16:10:12.931Z,23.23
2019-04-16T16:12:40.336Z,23.30
2019-04-16T16:15:10.533Z,21.87
2019-04-16T16:17:39.595Z,23.27
2019-04-16T16:20:10.292Z,24.63
2019-04-16T16:22:39.531Z,24.93
2019-04-16T16:25:08.929Z,23.23
2019-04-16T16:27:41.750Z,24.40
2019-04-16T16:30:08.890Z,24.07
2019-04-16T16:32:37.985Z,24.17
2019-04-16T16:35:07.157Z,23.50
2019-04-16T16:37:37.495Z,24.17
2019-04-16T16:40:07.310Z,24.07
2019-04-16T16:42:36.957Z,23.13
2019-04-16T16:45:07.273Z,24.23
2019-04-16T16:47:39.828Z,24.77
2019-04-16T16:50:13.773Z,22.43
2019-04-16T16:52:53.532Z,24.60
2019-04-16T16:55:53.854Z,24.57
2019-04-16T16:58:41.859Z,25.23
2019-04-16T17:01:36.323Z,25.37
2019-04-16T17:04:23.035Z,25.43
2019-04-16T17:06:52.429Z,26.07
2019-04-16T17:09:27.203Z,25.83
2019-04-16T17:11:57.551Z,26.07
2019-04-16T17:14:27.092Z,25.70
2019-04-16T17:17:11.222Z,24.57
2019-04-16T17:19:27.616Z,25.37
2019-04-16T17:21:56.969Z,26.07
2019-04-16T17:24:25.975Z,26.47
2019-04-16T17:26:55.352Z,24.47
2019-04-16T17:29:24.439Z,25.80
2019-04-16T17:31:53.794Z,27.30
2019-04-16T17:34:22.918Z,25.37
2019-04-16T17:36:52.003Z,26.87
2019-04-16T17:39:47.012Z,26.27
2019-04-16T17:42:16.954Z,26.40
2019-04-16T17:45:07.792Z,26.40
2019-04-16T17:48:10.767Z,25.87
2019-04-16T17:51:01.414Z,27.37
2019-04-16T17:53:35.139Z,26.77
2019-04-16T17:56:29.635Z,25.00
2019-04-16T17:59:04.984Z,26.50
2019-04-16T18:02:05.322Z,26.30
2019-04-16T18:04:51.885Z,26.47
2019-04-16T18:07:38.650Z,27.13
2019-04-16T18:10:26.885Z,27.50
2019-04-16T18:12:59.712Z,26.50
2019-04-16T18:16:02.853Z,26.27
2019-04-16T18:18:51.415Z,25.77
2019-04-16T18:21:42.264Z,26.33
2019-04-16T18:24:29.354Z,27.60
2019-04-16T18:27:29.575Z,25.63
2019-04-16T18:30:16.595Z,23.87
2019-04-16T18:32:58.998Z,25.13
2019-04-16T18:35:52.860Z,27.13
2019-04-16T18:38:41.586Z,26.47
2019-04-16T18:41:20.430Z,25.90
2019-04-16T18:44:11.162Z,28.23
2019-04-16T18:46:47.958Z,28.20
2019-04-16T18:49:19.411Z,27.67
2019-04-16T18:51:48.469Z,27.50
2019-04-16T18:54:17.600Z,27.37
2019-04-16T18:56:46.637Z,28.07
2019-04-16T18:59:15.710Z,28.40
2019-04-16T19:01:46.313Z,27.80
2019-04-16T19:04:15.620Z,26.47
2019-04-16T19:06:44.692Z,29.80
2019-04-16T19:09:14.683Z,29.30
2019-04-16T19:11:43.806Z,29.10
2019-04-16T19:14:13.868Z,30.13
2019-04-16T19:16:43.405Z,30.33
2019-04-16T19:19:12.731Z,30.40
2019-04-16T19:21:42.689Z,30.33
2019-04-16T19:24:12.446Z,31.00
2019-04-16T19:26:41.563Z,29.90
2019-04-16T19:29:14.388Z,30.23
2019-04-16T19:31:41.451Z,28.70
2019-04-16T19:34:10.746Z,29.80
2019-04-16T19:36:39.840Z,29.30
2019-04-16T19:39:13.729Z,29.97
2019-04-16T19:41:41.328Z,31.07
2019-04-16T19:44:10.668Z,30.63
2019-04-16T19:46:39.683Z,31.03
2019-04-16T19:49:08.764Z,29.17
2019-04-16T19:51:41.129Z,29.23
2019-04-16T19:54:08.750Z,29.23
2019-04-16T19:56:37.820Z,30.53
2019-04-16T19:59:06.891Z,30.67
2019-04-16T20:01:35.955Z,30.47
2019-04-16T20:04:09.233Z,30.27
2019-04-16T20:06:36.475Z,30.23
2019-04-16T20:09:07.445Z,32.80
2019-04-16T20:11:37.365Z,30.37
2019-04-16T20:14:06.453Z,30.90
2019-04-16T20:16:35.487Z,30.87
2019-04-16T20:19:04.536Z,29.97
2019-04-16T20:21:37.517Z,32.00
2019-04-16T20:24:05.031Z,30.13
2019-04-16T20:26:34.383Z,29.83
2019-04-16T20:29:03.564Z,28.97
2019-04-16T20:31:32.574Z,29.87
2019-04-16T20:34:01.749Z,29.27
2019-04-16T20:36:30.782Z,28.07
2019-04-16T20:39:00.266Z,29.43
2019-04-16T20:41:29.265Z,28.13
2019-04-16T20:43:58.591Z,27.63
2019-04-16T20:46:27.613Z,27.07
2019-04-16T20:49:08.248Z,26.63
2019-04-16T20:51:27.415Z,26.97
2019-04-16T20:53:56.630Z,25.17
2019-04-16T20:56:25.749Z,25.73
2019-04-16T20:58:55.245Z,26.23
2019-04-16T21:01:33.851Z,27.23
2019-04-16T21:04:04.640Z,27.30
2019-04-16T21:06:29.104Z,27.77
2019-04-16T21:08:58.712Z,27.20
2019-04-16T21:11:28.200Z,27.70
2019-04-16T21:13:57.267Z,27.20
2019-04-16T21:16:26.598Z,26.83
2019-04-16T21:18:55.701Z,27.63
2019-04-16T21:21:24.746Z,27.50
2019-04-16T21:23:53.825Z,28.23
2019-04-16T21:26:22.849Z,29.27
2019-04-16T21:29:05.541Z,27.03
2019-04-16T21:31:42.969Z,27.57
2019-04-16T21:34:46.347Z,31.47
2019-04-16T21:37:46.968Z,28.70
2019-04-16T21:40:16.421Z,28.33
2019-04-16T21:42:45.814Z,27.33
2019-04-16T21:45:16.527Z,25.67
2019-04-16T21:47:46.183Z,28.33
2019-04-16T21:50:16.296Z,26.63
2019-04-16T21:52:46.470Z,27.33
2019-04-16T21:55:15.496Z,28.30
2019-04-16T21:57:46.045Z,28.83
2019-04-16T22:03:32.530Z,28.87
2019-04-16T22:06:02.164Z,30.97
2019-04-16T22:08:31.901Z,32.33
2019-04-16T22:11:01.329Z,31.30
2019-04-16T22:13:30.395Z,33.60
2019-04-16T22:16:01.893Z,35.50
2019-04-16T22:18:31.324Z,35.10
2019-04-16T22:21:00.763Z,37.37
2019-04-16T22:23:29.795Z,36.80
2019-04-16T22:26:01.461Z,39.00
2019-04-16T22:28:29.952Z,37.90
2019-04-16T22:30:58.966Z,37.73
2019-04-16T22:33:28.014Z,37.23
2019-04-16T22:35:57.255Z,39.43
2019-04-16T22:38:29.892Z,37.77
2019-04-16T22:41:14.957Z,39.37
2019-04-16T22:44:06.992Z,38.80
2019-04-16T22:46:42.255Z,38.07
2019-04-16T22:49:11.651Z,40.10
2019-04-16T22:51:43.205Z,40.87
2019-04-16T22:54:11.816Z,39.60
2019-04-16T22:56:47.914Z,41.43
2019-04-16T22:59:16.961Z,42.63
2019-04-16T23:01:46.612Z,45.07
2019-04-16T23:04:15.654Z,45.77
2019-04-16T23:06:44.687Z,45.23
2019-04-16T23:09:17.020Z,46.33
2019-04-16T23:11:44.826Z,48.87
2019-04-16T23:14:14.193Z,43.87
2019-04-16T23:16:43.233Z,48.03
2019-04-16T23:19:12.264Z,49.17
2019-04-16T23:21:42.548Z,46.33
2019-04-16T23:24:12.072Z,50.37
2019-04-16T23:26:41.084Z,50.27
2019-04-16T23:29:12.419Z,47.83
2019-04-16T23:31:41.266Z,50.07
2019-04-16T23:34:10.299Z,51.10
2019-04-16T23:36:39.637Z,54.03
2019-04-16T23:39:08.687Z,54.60
2019-04-16T23:41:37.740Z,55.63
2019-04-16T23:44:40.957Z,55.87
2019-04-16T23:47:44.624Z,54.60
2019-04-16T23:50:45.175Z,57.77
2019-04-16T23:53:31.548Z,56.33
2019-04-16T23:56:12.551Z,59.07
2019-04-16T23:59:01.341Z,58.37
